MMTO/TLC METAR and TAF weather

Enter ICAO airport designator
Station Type Date Time Source
MMTO METAR 2022/07/01 01:45 UTC NOAA

MMTO 010145Z 22003KT 7SM FEW020 SCT200 16/09 A3039 RMK 8/501 HZY


Station Type Date Time Source
MMTO Decoded METAR 2022/07/01 01:45 UTC NOAA

Toluca / Jose Maria , Mexico (MMTO) 19-21N 099-34W
Jun 30, 2022 - 09:45 PM EDT / 2022.07.01 0145 UTC
Wind: from the SW (220 degrees) at 3 MPH (3 KT):0
Visibility: 7 mile(s):0
Sky conditions: partly cloudy
Temperature: 60 F (16 C)
Dew Point: 48 F (9 C)
Relative Humidity: 63%
Pressure (altimeter): 30.39 in. Hg (1029 hPa)
ob: MMTO 010145Z 22003KT 7SM FEW020 SCT200 16/09 A3039 RMK 8/501 HZY
cycle: 2

Station Type Date Time Source
MMTO TAF 2022/06/30 18:59 UTC NOAA

TAF COR MMTO 302057Z 3018/0124 33005KT 6SM HZ SCT015 TX23/3021Z TN09/0112Z
FM302100 08010KT P6SM BKN020CB BKN080
TEMPO 3021/0101 6SM TSRA BKN015CB
FM010400 06005KT 6SM HZ SCT015 BKN070
TEMPO 0112/0115 3SM HZ SCT010

Example: see airport list